Auburndale, Wisconsin
Current Conditions -  °F | °C
As of 1:54 AM on Saturday 25 Oct 2014 (Local Time) from KMFI Reporting Station
Haze Haze  
Wind Chill: 55°   Ceiling: 200
Heat Index: 55°   Visibility: 3mi
Dew Point: 53°   Wind: 10mph
Humidity: 93%   Direction: 250°WSW
Pressure: 29.84"   Gusts: NA
Location:  44.63°N, 90.01°W
Report Text: KMFI 250654Z AUTO 25009KT 3SM BR OVC002 13/12 A2984 RMK AO2 SLP108 T01280117
Loading
Personal Weather Stations






























Interactive Weather Map
Tropical Storm Tracking
New forecast layout! Learn more

10-Day Weather Forecast

Advertisements
Track Severe Weather on mobile